Airfield :
LOGIN :

Register | Disclaimer

   EN    FR    IT 

 










Legend :    VFR   Marginal VFR   IFR   Intensive IFR   Very Intensive IFR
Visi :
Ceiling :
>= 8 km
>= 3000ft
5 to 8 km
1000 to 3000 ft
1500m to 5 km
500 to 1000 ft
800 to 1500m
200 to 500 ft
< 800m
< 200 ft
Symbols :   Thunderstorms  Fog  Heavy snow  Heavy precipitations  Wind > 20 kt
SIGMETs :     Misc.  Thunderstorms  Icing  Turbulence  Mountain Waves  Volcanic Ashes






- Airport Elevation : 1682 ft
- IATA code : VIT


LEVT - Vitoria Gasteiz

CURRENT METAR :
  • 200300Z VRB02KT 9999 FEW025 BKN055 08/04 Q1015

EXPIRED METARs :
  • 200230Z 00000KT 9999 FEW025 BKN055 08/05 Q1015
  • 200200Z 28001KT 9999 FEW025 BKN055 08/04 Q1016
  • 200130Z VRB01KT 9999 FEW025 BKN055 08/05 Q1016
  • 200100Z 02004KT 9999 FEW025 BKN060 08/04 Q1016
  • 200030Z 05003KT 9999 -DZ FEW025 BKN060 08/03 Q1016

TAF TAF LEVT
Valid from the 20 at 00:00 until the 21 at 00:00 UTC


192300Z 2000/2024 VRB05KT CAVOK TX15/2014Z TN01/2006Z
PROB40
TEMPO 2000/2002 RA
PROB40
TEMPO 2000/2008 3000 BR BKN010
TEMPO 2006/2012 RA



MET'MAP, your aeronautical weather chart ! - Copyright ORBIFLY December 2007 - Disclaimer

ORBIFLY MET'MAP TEAM :

Programming & Development : Alexandra Zaïnal
Concept & original design : Baudouin d'Aumeries
Assistance for programming : Marc-Olivier Méhu
Technical & hardware support : Manuel Goepfert

Contact : metmap@orbifly.com




SOURCES & CREDITS :

   NOAA